createdAt,value
2022-10-14T00:02:17.319Z,10.43
2022-10-14T00:05:20.171Z,9.15
2022-10-14T00:08:23.083Z,9.70
2022-10-14T00:11:29.967Z,9.75
2022-10-14T00:14:32.759Z,10.07
2022-10-14T00:17:37.573Z,9.95
2022-10-14T00:20:40.353Z,9.57
2022-10-14T00:23:43.599Z,11.52
2022-10-14T00:26:47.795Z,9.85
2022-10-14T00:29:50.628Z,9.63
2022-10-14T00:32:53.495Z,10.77
2022-10-14T00:35:57.979Z,9.70
2022-10-14T00:39:07.019Z,8.20
2022-10-14T00:42:14.996Z,9.10
2022-10-14T00:45:21.472Z,10.25
2022-10-14T00:48:27.374Z,9.93
2022-10-14T00:51:32.238Z,9.35
2022-10-14T00:54:38.789Z,8.50
2022-10-14T00:57:43.218Z,10.70
2022-10-14T01:00:46.104Z,10.35
2022-10-14T01:03:49.764Z,10.23
2022-10-14T01:07:02.154Z,8.98
2022-10-14T01:10:11.389Z,10.80
2022-10-14T01:13:27.635Z,8.98
2022-10-14T01:16:40.525Z,11.07
2022-10-14T01:20:17.427Z,8.73
2022-10-14T01:23:47.418Z,9.80
2022-10-14T01:27:04.908Z,9.25
2022-10-14T01:30:17.202Z,9.98
2022-10-14T01:33:25.668Z,8.45
2022-10-14T01:36:34.551Z,8.63
2022-10-14T01:39:43.358Z,9.02
2022-10-14T01:42:48.653Z,9.40
2022-10-14T01:45:55.353Z,9.57
2022-10-14T01:49:03.551Z,7.95
2022-10-14T01:52:10.021Z,9.00
2022-10-14T01:55:20.199Z,8.52
2022-10-14T01:58:28.289Z,9.18
2022-10-14T02:01:34.932Z,8.90
2022-10-14T02:04:37.828Z,8.88
2022-10-14T02:07:45.529Z,8.45
2022-10-14T02:11:03.991Z,9.45
2022-10-14T02:14:19.072Z,9.10
2022-10-14T02:17:31.486Z,8.70
2022-10-14T02:20:38.537Z,9.32
2022-10-14T02:23:47.193Z,10.18
2022-10-14T02:26:52.485Z,9.02
2022-10-14T02:29:57.404Z,8.30
2022-10-14T02:33:02.354Z,9.25
2022-10-14T02:36:08.674Z,7.82
2022-10-14T02:39:16.563Z,8.05
2022-10-14T02:42:19.713Z,9.07
2022-10-14T02:45:26.067Z,8.77
2022-10-14T02:48:30.228Z,8.35
2022-10-14T02:51:34.022Z,8.77
2022-10-14T02:54:37.558Z,7.95
2022-10-14T02:57:40.425Z,7.78
2022-10-14T03:00:43.547Z,8.40
2022-10-14T03:03:49.463Z,8.43
2022-10-14T03:06:53.947Z,8.73
2022-10-14T03:09:59.903Z,9.23
2022-10-14T03:13:04.070Z,8.18
2022-10-14T03:16:13.114Z,8.57
2022-10-14T03:19:20.935Z,8.70
2022-10-14T03:22:26.515Z,7.55
2022-10-14T03:25:30.771Z,8.13
2022-10-14T03:28:39.578Z,7.85
2022-10-14T03:31:59.078Z,7.78
2022-10-14T03:35:08.863Z,8.52
2022-10-14T03:38:12.321Z,7.15
2022-10-14T03:41:15.552Z,7.88
2022-10-14T03:44:18.422Z,7.28
2022-10-14T03:47:41.194Z,9.20
2022-10-14T03:50:45.368Z,7.32
2022-10-14T03:53:48.225Z,9.35
2022-10-14T03:56:59.044Z,9.18
2022-10-14T04:00:07.162Z,9.55
2022-10-14T04:03:18.962Z,9.63
2022-10-14T04:06:23.233Z,7.55
2022-10-14T04:09:31.468Z,7.65
2022-10-14T04:12:35.135Z,8.40
2022-10-14T04:15:44.979Z,7.88
2022-10-14T04:19:05.058Z,7.70
2022-10-14T04:22:09.361Z,8.52
2022-10-14T04:25:12.267Z,7.55
2022-10-14T04:28:15.807Z,9.07
2022-10-14T04:31:38.969Z,8.38
2022-10-14T04:34:42.119Z,7.95
2022-10-14T04:37:49.915Z,7.88
2022-10-14T04:40:58.626Z,8.80
2022-10-14T04:44:02.792Z,8.98
2022-10-14T04:47:14.965Z,8.75
2022-10-14T04:50:18.623Z,8.45
2022-10-14T04:53:42.924Z,8.20
2022-10-14T04:56:58.390Z,8.65
2022-10-14T05:00:01.462Z,9.70
2022-10-14T05:03:36.443Z,9.43
2022-10-14T05:06:40.167Z,8.38
2022-10-14T05:09:50.395Z,9.38
2022-10-14T05:13:03.928Z,9.27
2022-10-14T05:16:12.960Z,9.00
2022-10-14T05:19:16.218Z,8.80
2022-10-14T05:22:26.107Z,11.15
2022-10-14T05:25:30.943Z,10.70
2022-10-14T05:28:34.123Z,10.80
2022-10-14T05:31:37.613Z,11.10
2022-10-14T05:35:03.035Z,13.07
2022-10-14T05:38:12.279Z,11.60
2022-10-14T05:41:19.038Z,12.75
2022-10-14T05:44:22.029Z,10.52
2022-10-14T05:47:25.742Z,11.02
2022-10-14T05:50:33.659Z,12.70
2022-10-14T05:53:43.554Z,11.90
2022-10-14T05:56:52.802Z,10.63
2022-10-14T05:59:56.171Z,10.48
2022-10-14T06:02:59.662Z,12.38
2022-10-14T06:06:09.869Z,12.68
2022-10-14T06:09:13.735Z,12.20
2022-10-14T06:12:17.930Z,9.07
2022-10-14T06:15:20.893Z,9.95
2022-10-14T06:18:23.845Z,8.88
2022-10-14T06:21:27.301Z,8.90
2022-10-14T06:24:30.121Z,9.07
2022-10-14T06:27:34.316Z,8.73
2022-10-14T06:30:37.156Z,9.90
2022-10-14T06:33:40.417Z,9.85
2022-10-14T06:36:43.168Z,8.23
2022-10-14T06:39:45.968Z,8.80
2022-10-14T06:42:50.137Z,8.07
2022-10-14T06:45:53.419Z,8.75
2022-10-14T06:48:56.303Z,8.18
2022-10-14T06:51:59.206Z,8.10
2022-10-14T06:55:02.083Z,8.68
2022-10-14T06:58:06.246Z,8.32
2022-10-14T07:01:09.737Z,8.40
2022-10-14T07:04:12.696Z,8.35
2022-10-14T07:07:15.524Z,8.32
2022-10-14T07:10:18.521Z,8.05
2022-10-14T07:13:22.765Z,9.43
2022-10-14T07:16:25.644Z,8.48
2022-10-14T07:19:28.520Z,8.60
2022-10-14T07:22:33.992Z,8.32
2022-10-14T07:25:40.526Z,8.40
2022-10-14T07:28:44.703Z,8.05
2022-10-14T07:31:47.559Z,8.15
2022-10-14T07:34:50.349Z,7.38
2022-10-14T07:37:53.289Z,8.43
2022-10-14T07:41:00.963Z,7.63
2022-10-14T07:44:08.967Z,7.43
2022-10-14T07:47:11.758Z,7.18
2022-10-14T07:50:15.322Z,7.28
2022-10-14T07:53:19.232Z,7.65
2022-10-14T07:56:22.813Z,7.13
2022-10-14T07:59:27.520Z,7.30
2022-10-14T08:02:30.529Z,7.88
2022-10-14T08:05:38.207Z,8.38
2022-10-14T08:08:42.362Z,7.30
2022-10-14T08:11:46.123Z,8.15
2022-10-14T08:14:50.298Z,6.95
2022-10-14T08:17:53.078Z,7.55
2022-10-14T08:20:55.930Z,7.22
2022-10-14T08:24:00.031Z,7.60
2022-10-14T08:27:02.949Z,7.43
2022-10-14T08:30:11.078Z,8.27
2022-10-14T08:33:14.245Z,7.65
2022-10-14T08:36:18.040Z,7.40
2022-10-14T08:39:21.675Z,7.57
2022-10-14T08:42:36.581Z,8.48
2022-10-14T08:45:48.537Z,7.00
2022-10-14T08:48:55.509Z,7.78
2022-10-14T08:52:02.720Z,7.45
2022-10-14T08:55:20.702Z,6.57
2022-10-14T08:58:32.111Z,7.07
2022-10-14T09:01:47.235Z,6.80
2022-10-14T09:04:50.354Z,7.22
2022-10-14T09:07:56.163Z,8.38
2022-10-14T09:10:59.704Z,7.57
2022-10-14T09:14:03.801Z,6.85
2022-10-14T09:17:14.864Z,6.88
2022-10-14T09:20:21.038Z,6.90
2022-10-14T09:23:25.787Z,8.25
2022-10-14T09:26:38.745Z,7.07
2022-10-14T09:29:45.961Z,7.03
2022-10-14T09:32:53.881Z,8.65
2022-10-14T09:39:05.375Z,6.05
2022-10-14T09:42:18.670Z,6.97
2022-10-14T09:45:23.923Z,7.90
2022-10-14T09:48:44.127Z,6.63
2022-10-14T09:51:47.254Z,6.63
2022-10-14T09:54:55.260Z,8.13
2022-10-14T09:58:05.217Z,6.28
2022-10-14T10:01:12.902Z,6.75
2022-10-14T10:04:33.384Z,5.90
2022-10-14T10:07:36.701Z,8.80
2022-10-14T10:10:39.479Z,6.45
2022-10-14T10:13:45.552Z,7.38
2022-10-14T10:16:49.149Z,7.03
2022-10-14T10:20:09.856Z,6.40
2022-10-14T10:23:25.325Z,7.20
2022-10-14T10:26:31.903Z,6.70
2022-10-14T10:29:35.491Z,6.25
2022-10-14T10:32:44.749Z,6.55
2022-10-14T10:36:10.629Z,6.63
2022-10-14T10:39:24.916Z,6.90
2022-10-14T10:42:39.753Z,6.20
2022-10-14T10:45:57.037Z,6.28
2022-10-14T10:49:06.109Z,6.43
2022-10-14T10:52:21.517Z,6.63
2022-10-14T10:55:35.508Z,6.40
2022-10-14T10:59:06.529Z,6.10
2022-10-14T11:02:45.992Z,5.85
2022-10-14T11:05:59.528Z,6.40
2022-10-14T11:09:24.401Z,7.10
2022-10-14T11:12:35.805Z,5.93
2022-10-14T11:15:51.373Z,6.53
2022-10-14T11:19:01.182Z,6.13
2022-10-14T11:22:13.668Z,5.93
2022-10-14T11:25:25.850Z,6.85
2022-10-14T11:28:38.175Z,6.88
2022-10-14T11:31:50.988Z,6.07
2022-10-14T11:35:10.156Z,6.32
2022-10-14T11:41:57.541Z,7.20
2022-10-14T11:45:11.554Z,7.40
2022-10-14T11:48:28.959Z,7.28
2022-10-14T11:51:37.518Z,6.82
2022-10-14T11:54:45.048Z,7.20
2022-10-14T11:57:53.443Z,7.50
2022-10-14T12:01:16.381Z,6.82
2022-10-14T12:04:27.010Z,6.63
2022-10-14T12:07:36.987Z,6.53
2022-10-14T12:10:44.405Z,5.63
2022-10-14T12:13:52.972Z,6.10
2022-10-14T12:16:56.891Z,6.40
2022-10-14T12:20:06.091Z,6.60
2022-10-14T12:23:12.206Z,6.28
2022-10-14T12:26:26.505Z,7.00
2022-10-14T12:29:34.799Z,6.72
2022-10-14T12:33:01.456Z,6.45
2022-10-14T12:36:04.355Z,6.15
2022-10-14T12:39:32.507Z,5.82
2022-10-14T12:42:37.669Z,5.93
2022-10-14T12:45:50.949Z,6.15
2022-10-14T12:48:54.769Z,5.95
2022-10-14T12:52:00.043Z,5.18
2022-10-14T12:55:14.437Z,6.53
2022-10-14T12:58:25.108Z,5.75
2022-10-14T13:01:33.702Z,5.18
2022-10-14T13:04:47.569Z,6.97
2022-10-14T13:08:12.006Z,6.55
2022-10-14T13:11:16.583Z,5.32
2022-10-14T13:14:27.079Z,5.72
2022-10-14T13:17:44.911Z,5.50
2022-10-14T13:20:52.437Z,6.03
2022-10-14T13:23:56.189Z,5.57
2022-10-14T13:27:08.321Z,5.85
2022-10-14T13:30:19.630Z,5.30
2022-10-14T13:33:27.913Z,5.80
2022-10-14T13:36:37.921Z,5.80
2022-10-14T13:39:40.721Z,7.45
2022-10-14T13:42:43.945Z,6.65
2022-10-14T13:45:51.002Z,5.82
2022-10-14T13:49:00.041Z,6.07
2022-10-14T13:52:07.851Z,4.78
2022-10-14T13:55:15.966Z,5.85
2022-10-14T13:58:25.226Z,6.00
2022-10-14T14:01:34.112Z,4.95
2022-10-14T14:04:38.732Z,6.00
2022-10-14T14:11:23.085Z,5.40
2022-10-14T14:14:36.791Z,5.75
2022-10-14T14:17:39.553Z,5.95
2022-10-14T14:20:43.773Z,5.15
2022-10-14T14:23:53.724Z,5.90
2022-10-14T14:26:57.298Z,6.28
2022-10-14T14:30:00.417Z,5.68
2022-10-14T14:33:05.459Z,7.03
2022-10-14T14:36:27.328Z,6.32
2022-10-14T14:39:36.512Z,6.45
2022-10-14T14:42:42.179Z,5.63
2022-10-14T14:45:46.804Z,6.93
2022-10-14T14:48:54.692Z,6.05
2022-10-14T14:51:59.976Z,6.22
2022-10-14T14:55:02.754Z,6.05
2022-10-14T14:58:09.129Z,6.25
2022-10-14T15:01:20.739Z,5.72
2022-10-14T15:04:29.335Z,6.03
2022-10-14T15:07:35.099Z,5.28
2022-10-14T15:10:37.884Z,5.68
2022-10-14T15:13:48.961Z,5.90
2022-10-14T15:16:54.259Z,6.40
2022-10-14T15:19:58.202Z,6.80
2022-10-14T15:23:03.306Z,5.82
2022-10-14T15:26:06.860Z,6.97
2022-10-14T15:29:16.333Z,5.65
2022-10-14T15:32:26.880Z,6.18
2022-10-14T15:35:30.516Z,4.93
2022-10-14T15:38:34.671Z,5.63
2022-10-14T15:41:38.643Z,5.00
2022-10-14T15:44:41.419Z,5.75
2022-10-14T15:47:44.498Z,6.07
2022-10-14T15:50:48.355Z,6.25
2022-10-14T15:53:52.846Z,5.15
2022-10-14T16:00:04.445Z,6.13
2022-10-14T16:03:17.556Z,5.45
2022-10-14T16:06:22.611Z,5.38
2022-10-14T16:09:28.611Z,6.13
2022-10-14T16:12:31.427Z,5.93
2022-10-14T16:15:42.326Z,6.43
2022-10-14T16:18:45.111Z,6.03
2022-10-14T16:21:50.872Z,6.65
2022-10-14T16:24:55.009Z,6.35
2022-10-14T16:27:58.542Z,5.65
2022-10-14T16:31:01.940Z,6.13
2022-10-14T16:34:04.851Z,6.13
2022-10-14T16:37:08.087Z,5.75
2022-10-14T16:40:13.089Z,6.07
2022-10-14T16:43:15.875Z,6.15
2022-10-14T16:46:18.668Z,5.53
2022-10-14T16:49:24.103Z,5.93
2022-10-14T16:52:27.384Z,5.82
2022-10-14T16:55:32.019Z,6.10
2022-10-14T16:58:34.789Z,5.85
2022-10-14T17:01:38.324Z,5.82
2022-10-14T17:04:48.055Z,6.72
2022-10-14T17:07:50.809Z,6.28
2022-10-14T17:10:58.238Z,6.40
2022-10-14T17:14:02.218Z,6.22
2022-10-14T17:17:05.891Z,5.25
2022-10-14T17:20:09.637Z,6.05
2022-10-14T17:23:12.398Z,6.50
2022-10-14T17:26:19.309Z,6.47
2022-10-14T17:29:22.118Z,6.43
2022-10-14T17:32:28.128Z,5.95
2022-10-14T17:35:30.931Z,6.55
2022-10-14T17:38:35.970Z,6.43
2022-10-14T17:41:40.086Z,7.22
2022-10-14T17:44:43.934Z,6.55
2022-10-14T17:47:46.899Z,5.63
2022-10-14T17:50:49.714Z,6.30
2022-10-14T17:53:54.876Z,6.47
2022-10-14T17:56:59.135Z,6.50
2022-10-14T18:00:01.966Z,5.68
2022-10-14T18:03:14.633Z,6.90
2022-10-14T18:06:19.579Z,5.80
2022-10-14T18:09:22.397Z,10.60
2022-10-14T18:12:26.603Z,6.63
2022-10-14T18:15:30.817Z,6.35
2022-10-14T18:18:34.940Z,6.47
2022-10-14T18:21:39.738Z,6.68
2022-10-14T18:24:43.843Z,5.75
2022-10-14T18:27:48.092Z,7.32
2022-10-14T18:30:50.875Z,7.03
2022-10-14T18:33:55.057Z,7.75
2022-10-14T18:36:57.854Z,6.45
2022-10-14T18:40:00.661Z,6.75
2022-10-14T18:43:07.330Z,6.10
2022-10-14T18:46:13.920Z,6.63
2022-10-14T18:49:16.703Z,7.32
2022-10-14T18:52:21.044Z,7.03
2022-10-14T18:55:24.323Z,7.13
2022-10-14T18:58:28.488Z,6.90
2022-10-14T19:01:31.307Z,6.15
2022-10-14T19:04:34.093Z,6.75
2022-10-14T19:07:38.002Z,7.10
2022-10-14T19:10:40.820Z,6.35
2022-10-14T19:13:46.934Z,6.63
2022-10-14T19:16:49.862Z,7.00
2022-10-14T19:19:52.724Z,5.82
2022-10-14T19:22:56.654Z,5.90
2022-10-14T19:26:01.073Z,7.25
2022-10-14T19:29:10.445Z,6.47
2022-10-14T19:32:14.431Z,6.47
2022-10-14T19:38:27.162Z,6.53
2022-10-14T19:41:32.286Z,6.60
2022-10-14T19:44:36.427Z,6.53
2022-10-14T19:47:39.240Z,6.70
2022-10-14T19:50:42.761Z,7.10
2022-10-14T19:53:45.539Z,6.70
2022-10-14T19:56:48.333Z,7.05
2022-10-14T19:59:52.491Z,7.70
2022-10-14T20:02:55.385Z,7.15
2022-10-14T20:06:01.656Z,7.40
2022-10-14T20:09:05.231Z,7.15
2022-10-14T20:12:08.142Z,6.68
2022-10-14T20:15:12.595Z,7.45
2022-10-14T20:18:17.941Z,7.05
2022-10-14T20:21:20.784Z,6.50
2022-10-14T20:24:23.594Z,5.75
2022-10-14T20:27:26.625Z,6.00
2022-10-14T20:30:30.965Z,7.65
2022-10-14T20:33:33.949Z,7.13
2022-10-14T20:36:36.763Z,7.32
2022-10-14T20:39:39.541Z,6.97
2022-10-14T20:42:42.371Z,6.13
2022-10-14T20:45:46.535Z,5.78
2022-10-14T20:48:49.379Z,7.03
2022-10-14T20:51:52.207Z,7.93
2022-10-14T20:54:55.520Z,6.30
2022-10-14T20:57:58.316Z,5.90
2022-10-14T21:01:10.233Z,6.60
2022-10-14T21:04:13.113Z,6.43
2022-10-14T21:07:16.450Z,6.55
2022-10-14T21:10:19.252Z,6.53
2022-10-14T21:13:22.086Z,6.68
2022-10-14T21:16:29.075Z,5.80
2022-10-14T21:19:32.411Z,6.25
2022-10-14T21:22:35.279Z,5.65
2022-10-14T21:25:38.185Z,6.45
2022-10-14T21:28:41.119Z,7.00
2022-10-14T21:31:45.408Z,5.70
2022-10-14T21:34:48.206Z,5.82
2022-10-14T21:37:52.842Z,5.88
2022-10-14T21:40:58.827Z,6.53
2022-10-14T21:44:01.852Z,5.57
2022-10-14T21:47:06.018Z,5.80
2022-10-14T21:50:09.473Z,6.90
2022-10-14T21:53:13.880Z,5.55
2022-10-14T21:56:19.305Z,6.10
2022-10-14T21:59:22.149Z,6.30
2022-10-14T22:02:26.657Z,6.72
2022-10-14T22:05:29.816Z,5.38
2022-10-14T22:08:35.857Z,6.13
2022-10-14T22:11:41.064Z,6.18
2022-10-14T22:14:43.993Z,5.63
2022-10-14T22:17:48.192Z,6.45
2022-10-14T22:20:59.851Z,6.05
2022-10-14T22:24:02.762Z,4.90
2022-10-14T22:27:05.579Z,5.85
2022-10-14T22:30:09.579Z,6.53
2022-10-14T22:33:13.727Z,6.18
2022-10-14T22:36:21.025Z,5.93
2022-10-14T22:39:27.157Z,5.82
2022-10-14T22:45:37.710Z,5.32
2022-10-14T22:48:41.940Z,6.32
2022-10-14T22:51:44.755Z,5.10
2022-10-14T22:54:48.966Z,6.13
2022-10-14T22:57:51.740Z,5.38
2022-10-14T23:00:54.719Z,6.18
2022-10-14T23:03:59.768Z,5.53
2022-10-14T23:07:06.088Z,5.38
2022-10-14T23:10:10.542Z,5.40
2022-10-14T23:13:13.491Z,5.65
2022-10-14T23:16:18.576Z,5.95
2022-10-14T23:19:22.731Z,5.00
2022-10-14T23:22:26.091Z,5.53
2022-10-14T23:25:29.151Z,6.60
2022-10-14T23:28:32.061Z,5.88
2022-10-14T23:31:36.988Z,5.88
2022-10-14T23:34:41.256Z,5.47
2022-10-14T23:37:44.039Z,5.78
2022-10-14T23:40:46.817Z,5.30
2022-10-14T23:43:50.201Z,5.45
2022-10-14T23:46:52.965Z,5.60
2022-10-14T23:49:57.125Z,5.53
2022-10-14T23:53:00.004Z,5.82
2022-10-14T23:56:04.309Z,5.13
2022-10-14T23:59:07.073Z,5.32
